Pagrindinis puslapis
METAR-TAF:

METAR-TAF

Oro uostai :

Balmaceda, Čilė

platuma: 45-55S, ilguma: 071-41W, Aukštis: 520 m

Dabartinis oras

Ataskaita buvo paskelbta 58 minutes, ne 20:00 UTC
Vėjas 10 kt iš Vakarų/Šiaurės Vakarų
Temperatūra 4°C
Drėgmė 70%
Slėgis 1019 hPa
Matomumas 10 km arba daugiau
nėra debesų žemiau 1500 m ir nėra kamuolinių lietaus debesų

METAR: SCBA 262000Z 29010KT CAVOK 04/M01 Q1019

Laikas: 16:58 (20:58 UTC)

Prognozė

Ataskaita buvo paskelbta 4 valandos ir 5 minutes, ne 16:53 UTC
Prognozė galioja nuo 26 metu 18 UTC su 27 metu 18 UTC
Vėjas 6 kt iš Vakarų
Matomumas 10 km arba daugiau
nėra debesų žemiau 1500 m ir nėra kamuolinių lietaus debesų

TAF: SCBA 261653Z 2618/2718 28006KT CAVOK TX05/2619Z TNM08/2710Z

Orai ataskaitas ir orų prognozės (METAR, TAF).

turimą stotys yra geltonos ir raudonos taškus žemėlapyje.

Perkelti pele per norėdami pamatyti stoties vardą.

Tada spustelėkite, norėdami matyti oro stebėjimo ir prognozės.

Norėdami pakeisti žemėlapį: spustelėkite ant žalios mygtukų su juodo kryžiaus žemyn,; žalią mygtuką su brūkšneliu, jei norite nutolinti; arba žalių rodyklių gretimoms žemėlapius.


METAR-TAF: